Terminal Aerodrome Forecast
Issued by NWS

Home | Current Version | Previous Version | Text Only | Print | Product List | Glossary On
Versions: 1 2 3 4 5 6 7 8 9 10 11 12 13 14 15
405
FTUS44 KMAF 231721
TAFFST
TAF
KFST 231721Z 2318/2418 15012G19KT P6SM FEW110
     FM240800 15009KT P6SM SKC=

USA.gov is the U.S. government's official web portal to all federal, state and local government web resources and services.